Time;durP1;ratioP1;P1;durP2;ratioP2;P2;SDS_P1;SDS_P2;PMS_P1;PMS_P2;Temp;Humidity;BMP_temperature;BMP_pressure;BME280_temperature;BME280_humidity;BME280_pressure;Samples;Min_cycle;Max_cycle;Signal;HPM_P1;HPM_P2
2023/12/02 00:00:20;;;;;;;22.30;14.27;;;;;;;1.21;68.84;99535.97;4090249;29;20094;-74
2023/12/02 00:02:25;;;;;;;21.77;14.40;;;;;;;1.01;70.07;99537.78;4109584;28;20032;-74
2023/12/02 00:04:28;;;;;;;;;;;;;;;1.10;69.67;99538.94;4111685;28;20108;-74
2023/12/02 00:06:30;;;;;;;21.23;12.90;;;;;;;1.10;69.54;99538.94;4128083;28;20008;-74
2023/12/02 00:08:33;;;;;;;21.27;13.65;;;;;;;1.22;68.51;99529.16;4103781;28;20039;-74
2023/12/02 00:10:36;;;;;;;24.52;15.82;;;;;;;0.92;69.52;99544.22;4112948;28;20046;-73
2023/12/02 00:12:39;;;;;;;21.92;14.07;;;;;;;0.98;69.34;99547.00;4113406;28;20034;-73
2023/12/02 00:14:42;;;;;;;21.88;14.48;;;;;;;0.96;69.73;99531.59;4112641;28;20045;-73
2023/12/02 00:16:45;;;;;;;21.65;14.30;;;;;;;0.96;70.24;99536.72;4112134;28;20067;-73
2023/12/02 00:18:49;;;;;;;22.70;14.93;;;;;;;1.06;69.25;99527.72;4107506;28;20050;-74
2023/12/02 00:20:52;;;;;;;21.95;14.20;;;;;;;0.91;70.29;99539.94;4110465;28;20489;-74
2023/12/02 00:22:54;;;;;;;23.95;13.63;;;;;;;1.02;69.61;99534.41;4112643;28;20039;-74
2023/12/02 00:24:58;;;;;;;23.02;13.85;;;;;;;0.97;69.56;99533.34;4112669;28;20097;-74
2023/12/02 00:27:01;;;;;;;33.03;15.98;;;;;;;0.84;70.12;99538.81;4112617;28;20094;-75
2023/12/02 00:29:03;;;;;;;22.90;14.70;;;;;;;0.83;70.85;99537.06;4116888;28;20387;-75
2023/12/02 00:31:07;;;;;;;22.42;14.10;;;;;;;0.97;70.41;99535.91;4113706;28;20416;-75
2023/12/02 00:33:10;;;;;;;23.73;13.80;;;;;;;0.88;70.57;99550.94;4112301;28;20042;-75
2023/12/02 00:35:13;;;;;;;24.13;14.48;;;;;;;1.00;69.97;99541.16;4113051;28;20126;-75
2023/12/02 00:37:16;;;;;;;23.83;14.35;;;;;;;1.02;69.58;99536.97;4112539;28;20492;-75
2023/12/02 00:39:19;;;;;;;24.48;15.30;;;;;;;0.93;69.94;99538.31;4116089;28;20043;-75
2023/12/02 00:41:22;;;;;;;25.48;15.80;;;;;;;0.95;69.43;99536.66;4097583;28;20047;-75
2023/12/02 00:43:25;;;;;;;24.23;14.20;;;;;;;0.82;69.89;99540.47;4113503;28;20125;-75
2023/12/02 00:45:29;;;;;;;25.65;16.05;;;;;;;0.90;69.93;99539.06;4096103;28;20036;-75
2023/12/02 00:47:32;;;;;;;25.20;15.70;;;;;;;0.79;70.36;99535.19;4128894;28;20129;-75
2023/12/02 00:49:34;;;;;;;23.02;14.15;;;;;;;0.74;70.26;99546.97;4106684;28;20304;-74
2023/12/02 00:51:38;;;;;;;23.35;14.75;;;;;;;0.58;71.01;99546.34;4111834;28;20039;-74
2023/12/02 00:53:41;;;;;;;28.23;15.45;;;;;;;0.86;70.05;99549.97;4110926;28;20035;-74
2023/12/02 00:55:44;;;;;;;24.90;14.77;;;;;;;0.77;69.91;99545.38;4112754;28;20034;-74
2023/12/02 00:57:47;;;;;;;29.88;15.73;;;;;;;0.79;69.88;99550.56;4125071;28;20042;-74
2023/12/02 00:59:51;;;;;;;26.85;15.43;;;;;;;0.74;69.58;99544.41;4106136;28;20043;-74
2023/12/02 01:01:54;;;;;;;23.83;15.13;;;;;;;0.71;69.52;99552.81;4107411;28;20047;-72
2023/12/02 01:03:57;;;;;;;23.77;15.50;;;;;;;0.69;69.66;99545.09;4107474;28;20450;-74
2023/12/02 01:06:00;;;;;;;23.25;14.57;;;;;;;0.58;69.75;99556.59;4110911;28;20054;-73
2023/12/02 01:08:05;;;;;;;25.80;16.23;;;;;;;0.56;69.76;99547.13;4106151;28;20039;-73
2023/12/02 01:10:11;;;;;;;24.63;15.02;;;;;;;0.69;69.63;99557.03;4107563;28;20057;-74
2023/12/02 01:12:14;;;;;;;24.27;14.80;;;;;;;0.63;69.55;99555.09;4104387;28;20482;-74
2023/12/02 01:14:17;;;;;;;28.02;15.93;;;;;;;0.48;69.98;99557.03;4109448;28;20031;-74
2023/12/02 01:16:19;;;;;;;23.88;14.55;;;;;;;0.73;69.73;99566.56;4106288;28;20438;-74
2023/12/02 01:18:22;;;;;;;26.67;15.30;;;;;;;0.53;69.52;99563.22;4112228;28;20053;-74
2023/12/02 01:20:25;;;;;;;22.05;14.38;;;;;;;0.62;68.90;99571.25;4108815;28;20501;-74
2023/12/02 01:22:28;;;;;;;22.25;15.18;;;;;;;0.49;69.78;99569.88;4112646;28;20612;-74
2023/12/02 01:24:33;;;;;;;22.15;14.52;;;;;;;0.51;69.94;99572.50;4110250;28;20035;-74
2023/12/02 01:26:35;;;;;;;23.55;14.35;;;;;;;0.43;70.27;99572.19;4110360;28;20063;-74
2023/12/02 01:28:37;;;;;;;24.02;15.05;;;;;;;0.59;69.55;99570.25;4107840;28;20039;-74
2023/12/02 01:30:42;;;;;;;22.67;14.05;;;;;;;0.59;69.29;99577.94;4109086;28;20049;-74
2023/12/02 01:32:45;;;;;;;21.02;13.68;;;;;;;0.71;68.76;99587.78;4107559;28;20050;-74
2023/12/02 01:34:48;;;;;;;20.13;13.38;;;;;;;0.56;68.89;99578.69;4112443;28;20134;-74
2023/12/02 01:36:51;;;;;;;24.83;14.13;;;;;;;0.56;69.16;99573.56;4106195;28;20058;-74
2023/12/02 01:38:54;;;;;;;23.02;14.55;;;;;;;0.47;70.04;99593.66;4110707;28;20050;-74
2023/12/02 01:40:58;;;;;;;23.77;12.90;;;;;;;0.48;69.00;99590.28;4110502;28;20038;-74
2023/12/02 01:43:03;;;;;;;19.65;12.82;;;;;;;0.48;68.92;99609.06;4127887;28;20122;-73
2023/12/02 01:45:07;;;;;;;20.00;13.07;;;;;;;0.43;68.78;99600.31;4110840;28;20042;-74
2023/12/02 01:47:10;;;;;;;21.65;13.65;;;;;;;0.36;69.72;99610.25;4110493;28;20043;-74
2023/12/02 01:49:14;;;;;;;20.85;12.98;;;;;;;0.38;69.58;99604.38;4111832;28;20035;-74
2023/12/02 01:51:18;;;;;;;22.40;13.52;;;;;;;0.30;70.24;99616.81;4124350;28;20080;-74
2023/12/02 01:53:21;;;;;;;22.23;13.85;;;;;;;0.36;69.59;99617.91;4114847;28;20039;-73
2023/12/02 01:55:25;;;;;;;20.25;13.32;;;;;;;0.28;69.53;99612.47;4117115;28;20360;-73
2023/12/02 01:57:29;;;;;;;20.55;13.57;;;;;;;0.30;70.05;99626.19;4114098;28;20543;-72
2023/12/02 01:59:32;;;;;;;22.70;13.32;;;;;;;0.10;70.80;99620.22;4114846;28;20070;-73
2023/12/02 02:01:38;;;;;;;19.88;12.07;;;;;;;0.16;69.84;99623.03;4115560;28;20058;-73
2023/12/02 02:03:41;;;;;;;20.30;12.65;;;;;;;0.17;69.59;99624.78;4110951;28;20031;-73
2023/12/02 02:05:45;;;;;;;21.08;12.77;;;;;;;0.08;70.29;99619.31;4116367;28;20045;-73
2023/12/02 02:07:47;;;;;;;19.92;12.95;;;;;;;0.13;69.88;99617.81;4114504;28;20075;-72
2023/12/02 02:10:20;;;;;;;20.50;12.15;;;;;;;0.09;69.93;99621.03;4116357;28;20444;-73
2023/12/02 02:12:23;;;;;;;20.13;11.88;;;;;;;0.18;69.93;99616.34;4114225;28;20078;-73
2023/12/02 02:14:46;;;;;;;16.80;11.88;;;;;;;0.17;69.46;99622.25;4115523;28;20437;-73
2023/12/02 02:16:49;;;;;;;19.33;12.05;;;;;;;0.01;69.67;99622.41;4101434;28;20050;-74
2023/12/02 02:18:52;;;;;;;18.65;12.18;;;;;;;0.03;69.88;99628.44;4117994;28;20054;-73
2023/12/02 02:20:55;;;;;;;18.20;11.48;;;;;;;-0.04;69.82;99629.88;4117812;28;20412;-73
2023/12/02 02:23:00;;;;;;;17.75;11.15;;;;;;;0.01;69.81;99642.84;4110748;28;20046;-73
2023/12/02 02:25:06;;;;;;;17.23;10.27;;;;;;;-0.08;69.10;99640.75;4114420;28;20035;-73
2023/12/02 02:27:09;;;;;;;15.77;11.15;;;;;;;-0.05;69.83;99639.22;4114098;28;20050;-73
2023/12/02 02:29:12;;;;;;;17.25;10.18;;;;;;;-0.01;69.47;99638.53;4117557;28;20046;-73
2023/12/02 02:31:15;;;;;;;18.90;11.32;;;;;;;0.13;69.40;99640.81;4109474;28;20314;-73
2023/12/02 02:33:19;;;;;;;17.75;10.45;;;;;;;0.12;68.53;99645.06;4115503;28;20134;-73
2023/12/02 02:35:22;;;;;;;14.73;10.13;;;;;;;0.05;68.84;99644.72;4116614;28;20511;-73
2023/12/02 02:37:25;;;;;;;15.93;10.70;;;;;;;0.21;68.52;99644.56;4113358;28;20062;-73
2023/12/02 02:39:29;;;;;;;20.65;12.02;;;;;;;-0.07;68.60;99643.38;4117623;28;20151;-74
2023/12/02 02:41:32;;;;;;;16.95;11.65;;;;;;;-0.02;68.74;99641.03;4109221;28;20042;-72
2023/12/02 02:43:35;;;;;;;20.45;12.18;;;;;;;-0.05;69.06;99644.31;4114329;28;20122;-74
2023/12/02 02:45:38;;;;;;;20.98;12.45;;;;;;;-0.06;68.81;99636.59;4112506;28;20059;-74
2023/12/02 02:47:41;;;;;;;18.02;11.88;;;;;;;-0.02;68.51;99644.44;4115980;28;20035;-74
2023/12/02 02:49:44;;;;;;;15.85;10.32;;;;;;;-0.08;70.11;99640.75;4113411;28;20058;-74
2023/12/02 02:51:47;;;;;;;22.92;11.95;;;;;;;-0.09;69.84;99647.56;4111698;28;20117;-74
2023/12/02 02:53:49;;;;;;;19.08;11.63;;;;;;;-0.16;69.77;99637.88;4116489;28;20570;-74
2023/12/02 02:55:53;;;;;;;17.27;11.23;;;;;;;-0.09;69.72;99649.22;4116887;28;20138;-74
2023/12/02 02:57:56;;;;;;;17.00;10.02;;;;;;;0.10;68.06;99650.91;4116361;28;20047;-74
2023/12/02 02:59:59;;;;;;;17.00;10.23;;;;;;;0.03;68.08;99659.09;4101329;28;20073;-74
2023/12/02 03:02:02;;;;;;;15.25;10.20;;;;;;;-0.07;68.25;99645.94;4107582;28;20043;-74
2023/12/02 03:04:06;;;;;;;17.48;10.55;;;;;;;-0.14;68.77;99643.94;4125153;28;20125;-74
2023/12/02 03:06:09;;;;;;;17.30;10.98;;;;;;;-0.02;67.61;99656.34;4104188;28;20051;-74
2023/12/02 03:08:12;;;;;;;19.95;10.30;;;;;;;-0.08;67.51;99651.00;4113656;28;20086;-74
2023/12/02 03:10:15;;;;;;;15.45;10.40;;;;;;;-0.18;68.09;99644.59;4113938;28;20069;-75
2023/12/02 03:12:19;;;;;;;14.60;9.20;;;;;;;-0.24;68.57;99652.00;4115185;28;20133;-73
2023/12/02 03:14:22;;;;;;;15.90;9.65;;;;;;;-0.07;67.48;99651.06;4114133;28;20046;-74
2023/12/02 03:16:25;;;;;;;15.63;9.52;;;;;;;-0.22;67.39;99658.94;4113547;28;20054;-74
2023/12/02 03:18:31;;;;;;;13.77;8.70;;;;;;;-0.17;66.94;99648.91;4105311;28;20078;-74
2023/12/02 03:20:34;;;;;;;13.00;8.15;;;;;;;-0.20;66.56;99657.28;4109862;28;20042;-74
2023/12/02 03:22:37;;;;;;;14.60;8.52;;;;;;;-0.18;67.47;99659.91;4111424;28;20545;-74
2023/12/02 03:24:39;;;;;;;14.20;8.52;;;;;;;-0.16;66.41;99653.22;4112456;28;20457;-74
2023/12/02 03:26:42;;;;;;;16.98;8.85;;;;;;;-0.16;65.99;99650.66;4112053;28;20034;-74
2023/12/02 03:28:46;;;;;;;12.55;7.93;;;;;;;-0.09;65.72;99649.22;4109370;28;20031;-74
2023/12/02 03:30:49;;;;;;;13.57;8.48;;;;;;;-0.19;66.15;99646.28;4113542;28;20081;-74
2023/12/02 03:32:52;;;;;;;13.95;8.85;;;;;;;-0.18;66.28;99634.38;4111071;28;20125;-75
2023/12/02 03:34:55;;;;;;;14.73;8.30;;;;;;;-0.39;66.64;99641.97;4111104;28;20421;-74
2023/12/02 03:36:58;;;;;;;15.75;8.70;;;;;;;-0.32;67.25;99648.22;4114120;28;20544;-74
2023/12/02 03:39:00;;;;;;;14.88;9.13;;;;;;;-0.24;66.84;99647.75;4112052;28;20077;-74
2023/12/02 03:41:05;;;;;;;15.65;8.70;;;;;;;-0.23;66.21;99648.63;4114251;28;20039;-74
2023/12/02 03:43:08;;;;;;;13.10;7.93;;;;;;;-0.20;66.37;99653.88;4089981;29;20072;-75
2023/12/02 03:45:12;;;;;;;11.75;7.75;;;;;;;-0.17;65.74;99654.00;4109715;28;20036;-76
2023/12/02 03:47:15;;;;;;;12.73;7.80;;;;;;;-0.16;65.61;99650.66;4110317;28;20571;-75
2023/12/02 03:49:18;;;;;;;13.07;7.80;;;;;;;-0.19;66.15;99651.41;4093865;28;20043;-74
2023/12/02 03:51:21;;;;;;;15.18;8.38;;;;;;;-0.29;66.00;99650.91;4112655;28;20584;-73
2023/12/02 03:53:25;;;;;;;12.95;7.47;;;;;;;-0.37;66.46;99656.53;4113326;28;20478;-74
2023/12/02 03:55:28;;;;;;;13.30;7.63;;;;;;;-0.45;67.35;99654.44;4107008;28;20035;-74
2023/12/02 03:57:31;;;;;;;11.85;7.78;;;;;;;-0.25;67.61;99652.78;4109906;28;20460;-73
2023/12/02 04:00:10;;;;;;;11.50;7.53;;;;;;;0.16;65.96;99662.28;4111171;28;20413;-74
2023/12/02 04:02:16;;;;;;;13.70;8.38;;;;;;;0.09;65.98;99674.69;4107451;28;20043;-73
2023/12/02 04:04:19;;;;;;;11.93;6.72;;;;;;;-0.07;65.00;99666.38;4096572;28;20051;-73
2023/12/02 04:06:22;;;;;;;13.02;7.47;;;;;;;-0.17;66.06;99661.69;4113225;28;20489;-73
2023/12/02 04:08:25;;;;;;;13.70;8.25;;;;;;;-0.23;66.22;99663.97;4111946;28;20039;-73
2023/12/02 04:10:28;;;;;;;14.05;7.97;;;;;;;-0.30;67.42;99673.03;4113683;28;20089;-73
2023/12/02 04:12:31;;;;;;;13.85;8.95;;;;;;;-0.22;66.62;99674.25;4113563;28;20042;-73
2023/12/02 04:14:34;;;;;;;13.18;7.50;;;;;;;0.03;65.38;99682.09;4109075;28;20122;-73
2023/12/02 04:16:39;;;;;;;12.80;7.97;;;;;;;-0.09;66.21;99683.34;4112650;28;20043;-73
2023/12/02 04:18:44;;;;;;;13.45;8.10;;;;;;;-0.28;66.46;99679.06;4112243;28;20062;-73
2023/12/02 04:20:47;;;;;;;12.65;7.65;;;;;;;-0.03;66.66;99686.16;4112750;28;20092;-74
2023/12/02 04:22:50;;;;;;;11.93;7.70;;;;;;;0.02;65.75;99690.59;4112531;28;20046;-74
2023/12/02 04:24:53;;;;;;;13.00;7.88;;;;;;;-0.08;66.06;99692.72;4113954;28;20058;-74
2023/12/02 04:26:56;;;;;;;11.55;7.35;;;;;;;-0.09;65.82;99693.56;4110817;28;20097;-74
2023/12/02 04:28:59;;;;;;;12.52;7.78;;;;;;;-0.07;66.01;99697.03;4110082;28;20133;-74
2023/12/02 04:31:02;;;;;;;12.55;8.00;;;;;;;0.05;64.80;99695.84;4110849;28;20489;-74
2023/12/02 04:33:05;;;;;;;13.63;7.88;;;;;;;-0.17;65.06;99700.00;4111151;28;20039;-74
2023/12/02 04:35:10;;;;;;;17.85;8.20;;;;;;;-0.30;66.47;99698.56;4113114;28;20039;-74
2023/12/02 04:37:13;;;;;;;;;;;;;;;-0.11;65.17;99710.47;4113248;28;20051;-74
2023/12/02 04:39:17;;;;;;;11.38;6.75;;;;;;;-0.24;66.06;99708.19;4112699;28;19964;-74
2023/12/02 04:41:20;;;;;;;14.63;7.72;;;;;;;-0.14;65.85;99712.03;4107351;28;20054;-74
2023/12/02 04:43:22;;;;;;;12.43;8.18;;;;;;;-0.09;65.64;99721.66;4108780;28;20121;-74
2023/12/02 04:45:26;;;;;;;12.95;8.13;;;;;;;-0.07;65.20;99740.47;4112390;28;20041;-74
2023/12/02 04:47:32;;;;;;;14.10;7.82;;;;;;;-0.13;65.10;99744.41;4109747;28;20042;-74
2023/12/02 04:49:35;;;;;;;13.85;8.15;;;;;;;-0.28;66.23;99744.59;4127958;28;20133;-73
2023/12/02 04:51:39;;;;;;;12.07;7.50;;;;;;;-0.07;65.24;99742.16;4126993;28;20042;-73
2023/12/02 04:53:43;;;;;;;14.00;8.90;;;;;;;-0.15;65.91;99738.38;4111355;28;20185;-73
2023/12/02 04:55:46;;;;;;;14.10;8.65;;;;;;;-0.17;65.39;99738.31;4110919;28;20038;-74
2023/12/02 04:57:49;;;;;;;12.82;7.97;;;;;;;-0.23;66.79;99741.47;4108134;28;20043;-75
2023/12/02 04:59:52;;;;;;;13.43;7.97;;;;;;;-0.13;65.73;99747.88;4110989;28;20070;-74
2023/12/02 05:01:55;;;;;;;12.90;8.57;;;;;;;-0.13;66.11;99752.09;4094576;28;20385;-75
2023/12/02 05:03:59;;;;;;;15.30;8.77;;;;;;;-0.20;65.70;99756.06;4112070;28;20133;-75
2023/12/02 05:06:02;;;;;;;14.23;8.43;;;;;;;-0.25;66.94;99766.06;4111483;28;20118;-75
2023/12/02 05:08:07;;;;;;;14.07;8.45;;;;;;;-0.12;65.72;99769.16;4126589;28;20043;-74
2023/12/02 05:10:11;;;;;;;15.40;9.38;;;;;;;-0.04;64.90;99763.59;4110697;28;20043;-74
2023/12/02 05:12:14;;;;;;;14.73;9.35;;;;;;;-0.21;65.49;99769.63;4113616;28;20071;-74
2023/12/02 05:14:17;;;;;;;15.68;9.07;;;;;;;-0.15;65.73;99769.91;4112544;28;20050;-74
2023/12/02 05:16:20;;;;;;;13.15;8.38;;;;;;;-0.18;66.40;99769.75;4108976;28;20102;-74
2023/12/02 05:18:23;;;;;;;13.13;8.57;;;;;;;-0.15;65.93;99782.66;4128063;28;20203;-74
2023/12/02 05:20:26;;;;;;;14.18;8.20;;;;;;;-0.10;65.62;99788.88;4112501;28;20133;-74
2023/12/02 05:22:28;;;;;;;13.90;9.32;;;;;;;-0.16;65.93;99793.72;4107791;28;20066;-74
2023/12/02 05:24:33;;;;;;;13.90;8.73;;;;;;;-0.10;65.51;99798.19;4112953;28;20449;-74
2023/12/02 05:26:36;;;;;;;13.57;8.70;;;;;;;-0.12;65.57;99805.81;4110785;28;20035;-74
2023/12/02 05:28:38;;;;;;;13.77;8.90;;;;;;;-0.20;65.79;99802.91;4108913;28;20047;-74
2023/12/02 05:30:41;;;;;;;16.27;8.95;;;;;;;-0.03;65.59;99826.69;4095641;28;20050;-74
2023/12/02 05:32:45;;;;;;;14.63;8.63;;;;;;;-0.25;66.10;99812.03;4103615;28;20125;-74
2023/12/02 05:34:48;;;;;;;13.93;8.80;;;;;;;-0.08;66.50;99812.81;4120427;28;20047;-74
2023/12/02 05:36:51;;;;;;;13.52;7.75;;;;;;;-0.06;66.27;99810.31;4110953;28;20038;-74
2023/12/02 05:38:54;;;;;;;11.73;7.95;;;;;;;0.01;65.22;99812.34;4107898;28;20059;-74
2023/12/02 05:40:58;;;;;;;13.90;8.98;;;;;;;-0.12;66.57;99810.91;4110970;28;20103;-75
2023/12/02 05:43:01;;;;;;;14.43;8.43;;;;;;;-0.13;66.20;99810.84;4112467;28;20465;-74
2023/12/02 05:45:05;;;;;;;12.07;8.30;;;;;;;-0.06;67.20;99831.66;4106700;28;20170;-74
2023/12/02 05:47:08;;;;;;;13.70;7.97;;;;;;;0.05;66.29;99819.38;4125358;28;20093;-74
2023/12/02 05:49:11;;;;;;;11.45;7.50;;;;;;;-0.01;65.06;99808.88;4095362;28;20046;-74
2023/12/02 05:51:14;;;;;;;13.23;7.65;;;;;;;-0.02;65.55;99814.78;4103059;28;20121;-73
2023/12/02 05:53:18;;;;;;;13.60;8.05;;;;;;;-0.17;65.77;99816.63;4112246;28;20034;-74
2023/12/02 05:55:21;;;;;;;13.00;8.18;;;;;;;-0.22;66.33;99829.16;4112485;28;20532;-73
2023/12/02 05:57:25;;;;;;;12.45;7.80;;;;;;;-0.08;66.14;99833.25;4111813;28;20102;-73
2023/12/02 05:59:28;;;;;;;10.43;6.75;;;;;;;0.08;65.32;99836.53;4111365;28;20378;-75
2023/12/02 06:01:31;;;;;;;12.50;7.60;;;;;;;-0.11;65.36;99837.34;4079785;29;20107;-74
2023/12/02 06:03:34;;;;;;;12.60;7.68;;;;;;;0.07;64.76;99837.31;4110437;28;20149;-74
2023/12/02 06:05:37;;;;;;;11.32;7.10;;;;;;;0.06;64.93;99840.66;4108600;28;20453;-74
2023/12/02 06:07:40;;;;;;;11.90;7.00;;;;;;;-0.06;65.70;99846.97;4110245;28;20077;-74
2023/12/02 06:09:44;;;;;;;12.68;7.72;;;;;;;0.04;65.06;99855.94;4120225;28;20042;-74
2023/12/02 06:11:47;;;;;;;13.63;8.52;;;;;;;-0.11;66.16;99853.53;4107595;28;20053;-74
2023/12/02 06:13:51;;;;;;;12.57;7.57;;;;;;;-0.09;65.58;99854.50;4110299;28;20045;-75
2023/12/02 06:15:54;;;;;;;13.52;7.68;;;;;;;-0.01;65.26;99847.19;4109543;28;20070;-74
2023/12/02 06:17:57;;;;;;;12.75;7.35;;;;;;;-0.22;65.70;99860.72;4092640;28;20393;-74
2023/12/02 06:20:01;;;;;;;13.55;8.30;;;;;;;-0.14;65.36;99863.63;4111515;28;20126;-74
2023/12/02 06:22:07;;;;;;;13.05;7.80;;;;;;;-0.08;65.72;99858.78;4109500;28;20043;-74
2023/12/02 06:24:10;;;;;;;11.75;6.97;;;;;;;-0.07;65.92;99860.56;4112846;28;20043;-76
2023/12/02 06:26:13;;;;;;;11.25;7.30;;;;;;;-0.04;64.63;99859.84;4107775;28;20117;-75
2023/12/02 06:28:16;;;;;;;12.45;7.38;;;;;;;-0.19;65.80;99875.28;4094865;28;20054;-75
2023/12/02 06:30:21;;;;;;;14.52;7.88;;;;;;;-0.29;66.28;99861.22;4109851;28;20039;-75
2023/12/02 06:32:24;;;;;;;11.38;6.85;;;;;;;-0.05;66.08;99865.75;4105759;28;20069;-76
2023/12/02 06:34:27;;;;;;;11.00;6.70;;;;;;;0.06;65.34;99873.88;4109081;28;20089;-75
2023/12/02 06:36:30;;;;;;;11.10;6.30;;;;;;;-0.11;65.86;99868.88;4123482;28;20596;-75
2023/12/02 06:38:33;;;;;;;9.95;6.28;;;;;;;0.03;65.17;99881.41;4126380;28;20487;-76
2023/12/02 06:40:37;;;;;;;9.10;5.55;;;;;;;-0.01;64.88;99871.06;4129662;28;20039;-76
2023/12/02 06:42:40;;;;;;;8.85;6.20;;;;;;;0.09;64.62;99891.91;4112855;28;20097;-76
2023/12/02 06:44:43;;;;;;;11.02;6.40;;;;;;;-0.07;64.76;99886.09;4121515;28;20077;-76
2023/12/02 06:46:49;;;;;;;;;;;;;;;-0.03;64.57;99893.13;4128916;28;20136;-76
2023/12/02 06:48:52;;;;;;;9.38;5.70;;;;;;;0.04;64.35;99895.97;4111850;28;20012;-75
2023/12/02 06:50:56;;;;;;;9.60;6.47;;;;;;;-0.05;64.46;99889.59;4109727;28;20046;-74
2023/12/02 06:52:59;;;;;;;11.45;6.90;;;;;;;0.07;64.35;99907.19;4114495;28;20039;-74
2023/12/02 06:55:02;;;;;;;9.63;5.97;;;;;;;0.03;63.32;99902.75;4114518;28;20039;-75
2023/12/02 06:57:10;;;;;;;9.52;5.28;;;;;;;-0.03;63.72;99894.78;4076287;29;20058;-74
2023/12/02 06:59:13;;;;;;;7.15;5.03;;;;;;;-0.13;63.97;99911.38;4080868;29;20143;-75
2023/12/02 07:01:27;;;;;;;7.80;4.68;;;;;;;-0.20;64.40;99902.53;4072990;29;20147;-75
2023/12/02 07:03:31;;;;;;;8.70;5.38;;;;;;;-0.15;63.95;99905.28;4062438;29;20491;-75
2023/12/02 07:05:34;;;;;;;9.07;5.95;;;;;;;-0.23;64.85;99906.63;4063472;29;20546;-74
2023/12/02 07:07:37;;;;;;;7.30;4.78;;;;;;;-0.20;63.57;99914.44;4076656;29;20043;-75
2023/12/02 07:09:40;;;;;;;8.63;5.32;;;;;;;-0.16;64.19;99921.44;4059694;29;20096;-75
2023/12/02 07:11:43;;;;;;;7.10;4.70;;;;;;;-0.17;63.56;99921.38;4072231;29;20051;-75
2023/12/02 07:13:47;;;;;;;6.85;4.57;;;;;;;-0.09;62.73;99922.59;4059993;29;20115;-75
2023/12/02 07:15:51;;;;;;;9.52;5.35;;;;;;;-0.06;62.97;99930.41;4099024;28;20133;-75
2023/12/02 07:17:54;;;;;;;9.63;4.90;;;;;;;-0.22;63.92;99932.25;4110499;28;20529;-74
2023/12/02 07:19:58;;;;;;;7.10;4.63;;;;;;;-0.15;63.13;99938.50;4113397;28;20039;-74
2023/12/02 07:22:01;;;;;;;6.32;4.20;;;;;;;-0.15;63.21;99942.75;4111502;28;20051;-75
2023/12/02 07:24:05;;;;;;;8.18;4.00;;;;;;;-0.20;63.08;99940.84;4113879;28;20114;-75
2023/12/02 07:26:11;;;;;;;7.20;4.78;;;;;;;-0.30;63.44;99942.88;4128440;28;20061;-74
2023/12/02 07:28:14;;;;;;;6.68;4.35;;;;;;;-0.14;62.74;99944.50;4112396;28;20042;-75
2023/12/02 07:30:17;;;;;;;7.68;4.57;;;;;;;-0.24;63.36;99955.94;4111474;28;20042;-75
2023/12/02 07:32:22;;;;;;;9.45;5.60;;;;;;;-0.21;63.07;99956.09;4111308;28;20071;-77
2023/12/02 07:34:25;;;;;;;7.55;4.60;;;;;;;-0.27;63.38;99955.78;4109168;28;20050;-76
2023/12/02 07:36:29;;;;;;;9.13;5.20;;;;;;;-0.31;62.86;99948.78;4096855;28;20039;-74
2023/12/02 07:38:32;;;;;;;8.95;4.75;;;;;;;-0.26;63.46;99947.34;4109961;28;20072;-74
2023/12/02 07:40:35;;;;;;;8.25;5.10;;;;;;;-0.28;63.42;99957.44;4112078;28;20409;-74
2023/12/02 07:42:38;;;;;;;7.43;5.07;;;;;;;-0.29;63.77;99962.47;4089783;28;20478;-74
2023/12/02 07:44:41;;;;;;;9.75;5.53;;;;;;;-0.27;64.25;99973.69;4113326;28;20438;-74
2023/12/02 07:46:44;;;;;;;12.15;5.72;;;;;;;-0.23;64.23;99963.69;4110005;28;20059;-74
2023/12/02 07:48:49;;;;;;;8.05;5.10;;;;;;;-0.05;63.52;99971.34;4109231;28;20410;-74
2023/12/02 07:50:52;;;;;;;6.97;4.47;;;;;;;-0.06;63.84;99973.84;4111129;28;20042;-74
2023/12/02 07:52:56;;;;;;;10.00;6.15;;;;;;;-0.02;63.51;99973.19;4109043;28;20054;-75
2023/12/02 07:55:00;;;;;;;9.63;5.90;;;;;;;-0.01;63.53;99982.63;4113203;28;20042;-74
2023/12/02 07:57:03;;;;;;;9.65;5.90;;;;;;;0.09;63.06;99986.47;4113262;28;20035;-74
2023/12/02 07:59:06;;;;;;;8.10;5.15;;;;;;;-0.01;63.04;99987.72;4107399;28;20412;-75
2023/12/02 08:01:09;;;;;;;8.73;5.15;;;;;;;-0.12;63.24;99984.63;4106388;28;20057;-75
2023/12/02 08:03:12;;;;;;;7.75;4.95;;;;;;;-0.17;62.33;100000.56;4093164;28;20177;-74
2023/12/02 08:05:16;;;;;;;8.00;5.57;;;;;;;-0.16;63.10;99992.06;4127484;28;20100;-75
2023/12/02 08:07:22;;;;;;;9.38;5.45;;;;;;;-0.21;63.01;99991.84;4113340;28;20045;-76
2023/12/02 08:09:27;;;;;;;9.40;5.45;;;;;;;-0.14;62.93;99991.34;4112299;28;20619;-75
2023/12/02 08:11:30;;;;;;;8.65;5.72;;;;;;;-0.06;62.26;99990.06;4112653;28;20043;-75
2023/12/02 08:13:33;;;;;;;10.02;5.68;;;;;;;-0.24;63.70;99996.81;4113539;28;20043;-72
2023/12/02 08:15:39;;;;;;;9.93;6.32;;;;;;;-0.17;63.39;100010.78;4110978;28;20061;-75
2023/12/02 08:17:42;;;;;;;10.23;6.40;;;;;;;-0.31;64.54;100007.53;4109705;28;20035;-74
2023/12/02 08:19:45;;;;;;;9.23;5.70;;;;;;;-0.21;64.27;100014.84;4108661;28;20155;-75
2023/12/02 08:21:49;;;;;;;10.50;6.43;;;;;;;-0.02;64.84;100017.50;4108352;28;20102;-61
2023/12/02 08:23:51;;;;;;;9.52;5.90;;;;;;;-0.02;64.27;100011.53;4108276;28;20090;-71
2023/12/02 08:25:55;;;;;;;13.70;7.50;;;;;;;0.00;63.89;100017.59;4124546;28;20050;-72
2023/12/02 08:27:58;;;;;;;;;;;;;;;-0.07;64.46;100029.19;4110309;28;20035;-71
2023/12/02 08:30:03;;;;;;;11.93;6.35;;;;;;;0.02;64.13;100018.53;4106464;28;20451;-71
2023/12/02 08:32:07;;;;;;;7.78;5.50;;;;;;;0.02;64.23;100017.69;4112852;28;20109;-71
2023/12/02 08:34:11;;;;;;;9.68;6.20;;;;;;;-0.09;64.10;100027.34;4111870;28;20049;-71
2023/12/02 08:36:18;;;;;;;9.23;5.80;;;;;;;-0.08;63.95;100029.97;4104914;28;20043;-71
2023/12/02 08:38:21;;;;;;;6.55;4.63;;;;;;;-0.02;64.01;100027.72;4112463;28;20043;-72
2023/12/02 08:40:24;;;;;;;9.95;5.40;;;;;;;0.01;64.03;100031.25;4116018;28;20600;-71
2023/12/02 08:42:28;;;;;;;9.55;6.05;;;;;;;-0.08;63.68;100034.22;4113907;28;20066;-72
2023/12/02 08:44:31;;;;;;;9.25;6.32;;;;;;;-0.04;63.69;100034.44;4113149;28;20125;-71
2023/12/02 08:46:34;;;;;;;11.23;6.95;;;;;;;-0.03;64.49;100040.44;4110855;28;20045;-67
2023/12/02 08:48:37;;;;;;;9.00;6.13;;;;;;;0.09;64.03;100042.72;4109877;28;20113;-66
2023/12/02 08:50:40;;;;;;;11.27;6.25;;;;;;;-0.16;64.40;100058.50;4108505;28;20043;-67
2023/12/02 08:52:43;;;;;;;9.82;6.47;;;;;;;0.03;63.87;100056.09;4103582;28;20098;-68
2023/12/02 08:54:45;;;;;;;10.95;6.13;;;;;;;-0.08;64.62;100068.31;4108829;28;20038;-67
2023/12/02 08:56:48;;;;;;;9.50;6.15;;;;;;;-0.02;63.41;100068.59;4112157;28;20041;-67
2023/12/02 08:58:52;;;;;;;9.48;5.65;;;;;;;0.01;64.04;100074.69;4107192;28;20066;-68
2023/12/02 09:00:55;;;;;;;12.60;6.95;;;;;;;-0.17;64.17;100078.06;4111361;28;20073;-65
2023/12/02 09:02:59;;;;;;;8.20;5.78;;;;;;;-0.04;63.84;100080.44;4111169;28;20101;-67
2023/12/02 09:05:02;;;;;;;11.35;7.18;;;;;;;-0.13;64.53;100086.75;4111282;28;20043;-68
2023/12/02 09:07:05;;;;;;;12.75;6.78;;;;;;;-0.17;65.26;100095.94;4107725;28;20039;-67
2023/12/02 09:09:08;;;;;;;12.60;6.53;;;;;;;-0.08;64.26;100086.19;4091636;28;20067;-66
2023/12/02 09:11:11;;;;;;;9.80;6.20;;;;;;;-0.08;64.69;100090.44;4110347;28;20548;-67
2023/12/02 09:13:25;;;;;;;10.63;6.10;;;;;;;-0.14;64.14;100098.66;4112546;28;20035;-67
2023/12/02 09:15:40;;;;;;;9.30;5.30;;;;;;;-0.10;63.88;100089.47;4110290;28;20074;-67
2023/12/02 09:18:08;;;;;;;10.60;6.50;;;;;;;0.07;62.63;100098.00;4101722;28;20078;-67
2023/12/02 09:20:35;;;;;;;8.30;5.97;;;;;;;0.05;62.81;100105.59;4110797;28;20043;-67
2023/12/02 09:22:47;;;;;;;;;;;;;;;-0.11;63.99;100115.84;4103384;28;20476;-66
2023/12/02 09:24:52;;;;;;;9.45;5.40;;;;;;;-0.14;63.05;100111.44;4110157;28;19948;-65
2023/12/02 09:26:54;;;;;;;8.25;5.38;;;;;;;-0.08;63.87;100109.19;4102041;28;20069;-67
2023/12/02 09:28:57;;;;;;;9.27;5.70;;;;;;;-0.05;63.64;100114.44;4108937;28;20055;-65
2023/12/02 09:31:04;;;;;;;8.32;5.65;;;;;;;-0.06;63.32;100120.38;4109616;28;20046;-65
2023/12/02 09:33:12;;;;;;;8.18;5.43;;;;;;;-0.22;64.56;100125.47;4109615;28;20038;-66
2023/12/02 09:35:15;;;;;;;9.82;6.13;;;;;;;-0.15;64.01;100132.66;4106778;28;20067;-65
2023/12/02 09:37:50;;;;;;;7.95;5.82;;;;;;;-0.15;64.66;100139.47;4107299;28;20038;-65